AirNav   Air Wisconsin Up To $57,000 Bonus
 
 926 users online  

FL25 Mercy Hospital Heliport
Miami, Florida, USA

GOING TO MIAMI?


FAA INFORMATION EFFECTIVE 05 DECEMBER 2019

Location

FAA Identifier: FL25
Lat/Long: 25-44-24.0600N 080-12-44.3000W
25-44.401000N 080-12.738333W
25.7400167,-80.2123056
(estimated)
Elevation: 6 ft. / 2 m (estimated)
Variation: 03W (1985)
From city: 2 miles SW of MIAMI, FL
Time zone: UTC -5 (UTC -4 during Daylight Saving Time)
Zip code: 33129

Heliport Operations

Heliport use: Private use, MEDICAL.
Activation date: 08/1972
Control tower: no
ARTCC: MIAMI CENTER
FSS: MIAMI FLIGHT SERVICE STATION
Attendance: UNATNDD
Wind indicator: lighted
Segmented circle: no

Heliport Communications

WX ASOS at MIA (5 nm NW): PHONE 305-870-0235
WX ASOS at OPF (11 nm N): 125.9 (305-681-4063)
WX ASOS at TMB (13 nm SW): PHONE 305-235-1332
WX ASOS at HWO (16 nm N): PHONE 954-983-5904

Nearby radio navigation aids

VOR radial/distance  VOR name  Freq  Var
VKZr261/3.2VIRGINIA KEY VOR/DME117.1004W
DHPr120/8.2DOLPHIN VORTAC113.9004W
FLLr193/20.2FORT LAUDERDALE VOR/DME114.4006W

Heliport Services

Airframe service: NONE
Powerplant service: NONE

Runway Information

Helipad H1

Dimensions: 60 x 54 ft. / 18 x 16 m
Surface: concrete, in fair condition
Runway edge lights: PERI
Traffic pattern: leftleft
Markings: numbers only, in good condition
Obstructions: 45 ft. bldg, lighted, 20 ft. from runway
OBSTRUCTION IS LOCATED ON THE HOSPITAL STRUCTURE THAT SUPPORTS THE HELIPADS.

Helipad H2

Dimensions: 60 x 54 ft. / 18 x 16 m
Surface: concrete, in excellent condition
Traffic pattern: leftleft

Heliport Ownership and Management from official FAA records

Ownership: Privately-owned
Owner: HOSPITAL CORPORATION OF AMERICA
3663 SOUTH MIAMI AVENUE
MIAMI, FL 33133
Phone 305-860-5240
Manager: JAY S. MRANDA, COO MERCY HOSPITAL
3663 SOUTH MIAMI AVENUE
MIAMI, FL 33133
Phone 305-860-5240
EXT 2166.

Additional Remarks

FOR CD CTC MIAMI APCH AT 305-869-5432.

Instrument Procedures

There are no published instrument procedures at FL25.

Some nearby airports with instrument procedures:

KMIA - Miami International Airport (5 nm NW)
KOPF - Miami-Opa Locka Executive Airport (11 nm N)
KTMB - Miami Executive Airport (13 nm SW)
KHWO - North Perry Airport (16 nm N)
KHST - Homestead Air Reserve Base (18 nm SW)
 
Loc | Ops | Rwys | IFR | FBO | Links
Com | Nav | Svcs | Stats | Notes


 
Aerial photo
No photo
 
Airport distance calculator
Flying to Mercy Hospital Heliport? Find the distance to fly.

From to FL25

Sunrise and sunset
Times for 12-Dec-2019
 Local
(UTC-5)
 Zulu
(UTC)
Morning civil twilight06:3411:34
Sunrise06:5911:59
Sunset17:3022:30
Evening civil twilight17:5522:55

Current date and time
Zulu (UTC)  13-Dec-2019 00:09:15
Local (UTC-5)  12-Dec-2019 19:09:15
 
METAR
KMIA 
6nm NW 
122353Z 11008KT 10SM SCT030 SCT170 BKN250 25/19 A3011 RMK AO2 SLP196 T02500189 10278 20250 53003 $
KOPF 
11nm N 
122353Z 09003KT 10SM CLR 24/20 A3011 RMK AO2 SLP198 T02390200 10283 20239 53003
KTMB 
13nm SW 
122353Z 09006KT 10SM CLR 23/21 A3011 RMK AO2 SLP194 T02280206 10283 20228 53003
KHWO 
16nm N 
122353Z 09003KT 10SM CLR 24/20 A3012 RMK AO2 SLP200 T02440200 10278 20244 53003
KHST 
18nm SW 
122356Z AUTO 08007KT 10SM CLR 24/21 A3009 RMK AO2 SLP193 T02400205 10276 20240 53001
KFLL 
20nm N 
130004Z 15004KT 4SM R10L/4000VP6000FT +RA BR FEW022 BKN026 BKN037 22/19 A3011 RMK AO2 P0015 T02170194 $
TAF
KMIA 
6nm NW 
122201Z 1222/1324 10012KT P6SM VCSH FEW030 SCT050 SCT160 BKN250 FM130000 09007KT P6SM SCT030 BKN060 BKN100 PROB30 1309/1315 5SM SHRA BKN025 FM131500 12008KT P6SM SCT025 BKN050 BKN100 PROB30 1315/1318 5SM SHRA BKN025 FM131800 16009KT P6SM SCT025 BKN050 BKN150
KOPF 
11nm N 
122201Z 1222/1318 12011KT P6SM VCSH SCT027 SCT035 BKN060 FM130000 09007KT P6SM SCT030 BKN060 BKN100 PROB30 1309/1315 5SM SHRA BKN025 FM131500 12008KT P6SM SCT025 BKN050 BKN100 PROB30 1315/1318 5SM SHRA BKN025
KTMB 
13nm SW 
122201Z 1222/1318 09010KT P6SM VCSH SCT025 SCT050 FM130000 09006KT P6SM SCT030 BKN060 BKN100 PROB30 1309/1315 5SM SHRA BKN025 FM131500 12008KT P6SM SCT025 BKN050 BKN100 PROB30 1315/1318 5SM SHRA BKN025
KHST 
18nm SW 
122000Z 1220/1402 09009KT 9999 FEW025 FEW040 QNH3009INS BECMG 1311/1312 12009KT 9999 FEW020 SCT025 QNH3002INS BECMG 1314/1315 15010G15KT 9999 BKN020 OVC025 QNH2996INS BECMG 1320/1321 14006KT 8000 -SHRA SCT015 BKN020 QNH2991INS TX27/1317Z TN23/1302Z
KFLL 
20nm N 
122201Z 1222/1324 11012KT P6SM VCSH SCT025 SCT100 BKN170 FM130000 10008KT P6SM SCT030 BKN060 BKN100 PROB30 1309/1315 5SM SHRA BKN025 FM131500 13009KT P6SM SCT025 BKN050 BKN100 PROB30 1315/1318 5SM SHRA BKN025 FM131800 16009KT P6SM SCT025 BKN050 BKN150
NOTAMs
Click for the latest NOTAMs
NOTAMs are issued by the DoD/FAA and will open in a separate window not controlled by AirNav.

 

 
 

Would you like to see your business listed on this page?

 If your business provides an interesting product or service to pilots, flight crews, aircraft, or users of the Mercy Hospital Heliport, you should consider listing it here.  To start the listing process, click on the button below
 
Add a business
 

Other Pages about Mercy Hospital Heliport

Update a link
 
Copyright © AirNav, LLC. All rights reserved. Privacy Policy  Contact